sensor_id;sensor_type;location;lat;lon;timestamp;pressure;altitude;pressure_sealevel;temperature;humidity
23318;BME280;11831;55.918;37.746;2022-11-27T19:30:20;101182.50;;;-0.99;0.00
23318;BME280;11831;55.918;37.746;2022-11-27T19:32:47;101180.84;;;-1.00;0.00
23318;BME280;11831;55.918;37.746;2022-11-27T19:35:15;101185.25;;;-1.01;0.00
23318;BME280;11831;55.918;37.746;2022-11-27T19:37:42;101187.62;;;-0.85;0.00
23318;BME280;11831;55.918;37.746;2022-11-27T19:40:09;101182.25;;;-0.83;0.00
23318;BME280;11831;55.918;37.746;2022-11-27T19:42:36;101182.53;;;-0.64;0.00
23318;BME280;11831;55.918;37.746;2022-11-27T19:45:02;101186.47;;;-0.70;0.00
23318;BME280;11831;55.918;37.746;2022-11-27T19:47:29;101187.81;;;-0.64;0.00
23318;BME280;11831;55.918;37.746;2022-11-27T19:49:55;101180.00;;;-0.42;0.00
23318;BME280;11831;55.918;37.746;2022-11-27T19:52:22;101173.03;;;-0.19;0.00
23318;BME280;11831;55.918;37.746;2022-11-27T19:54:48;101189.19;;;-0.47;0.00
23318;BME280;11831;55.918;37.746;2022-11-27T19:57:15;101185.81;;;-0.14;0.00
23318;BME280;11831;55.918;37.746;2022-11-27T19:59:41;101189.16;;;-0.82;0.00
23318;BME280;11831;55.918;37.746;2022-11-27T20:02:11;101182.97;;;-0.57;0.00
23318;BME280;11831;55.918;37.746;2022-11-27T20:04:39;101189.63;;;-0.29;0.00
23318;BME280;11831;55.918;37.746;2022-11-27T20:07:05;101189.87;;;-0.56;0.00
23318;BME280;11831;55.918;37.746;2022-11-27T20:09:34;101195.03;;;-0.79;0.00
23318;BME280;11831;55.918;37.746;2022-11-27T20:12:01;101194.78;;;-0.52;0.00
23318;BME280;11831;55.918;37.746;2022-11-27T20:14:27;101203.63;;;-0.77;0.00
23318;BME280;11831;55.918;37.746;2022-11-27T20:16:54;101195.75;;;-0.53;0.00
23318;BME280;11831;55.918;37.746;2022-11-27T20:19:21;101197.34;;;-0.39;0.00
23318;BME280;11831;55.918;37.746;2022-11-27T20:21:47;101199.91;;;-0.15;0.00
23318;BME280;11831;55.918;37.746;2022-11-27T20:24:14;101210.31;;;-0.60;0.00
23318;BME280;11831;55.918;37.746;2022-11-27T20:26:41;101205.03;;;-0.25;0.00
23318;BME280;11831;55.918;37.746;2022-11-27T20:29:08;101204.91;;;-0.23;0.00
23318;BME280;11831;55.918;37.746;2022-11-27T20:31:36;101205.78;;;-0.47;0.00
23318;BME280;11831;55.918;37.746;2022-11-27T20:34:04;101208.19;;;-0.44;0.00
23318;BME280;11831;55.918;37.746;2022-11-27T20:36:33;101215.84;;;-0.41;0.00
23318;BME280;11831;55.918;37.746;2022-11-27T20:39:00;101212.97;;;-0.49;0.00
23318;BME280;11831;55.918;37.746;2022-11-27T20:41:27;101215.38;;;-0.70;0.00
23318;BME280;11831;55.918;37.746;2022-11-27T20:43:59;101209.06;;;-0.32;0.00
23318;BME280;11831;55.918;37.746;2022-11-27T20:46:27;101219.78;;;-0.94;0.00
23318;BME280;11831;55.918;37.746;2022-11-27T20:48:54;101216.41;;;-0.24;0.00
23318;BME280;11831;55.918;37.746;2022-11-27T20:51:23;101229.06;;;-0.29;0.00
23318;BME280;11831;55.918;37.746;2022-11-27T20:53:50;101228.00;;;-0.16;0.00
23318;BME280;11831;55.918;37.746;2022-11-27T20:56:18;101231.88;;;-0.33;0.00
23318;BME280;11831;55.918;37.746;2022-11-27T20:58:46;101227.03;;;-0.61;0.00
23318;BME280;11831;55.918;37.746;2022-11-27T21:01:22;101226.59;;;-0.44;0.00
23318;BME280;11831;55.918;37.746;2022-11-27T21:03:50;101224.84;;;0.03;0.00
23318;BME280;11831;55.918;37.746;2022-11-27T21:06:19;101225.41;;;-0.64;0.00
23318;BME280;11831;55.918;37.746;2022-11-27T21:08:47;101237.13;;;-0.33;0.00
23318;BME280;11831;55.918;37.746;2022-11-27T21:11:22;101230.97;;;-0.79;0.00
23318;BME280;11831;55.918;37.746;2022-11-27T21:13:54;101225.62;;;-0.43;0.00
23318;BME280;11831;55.918;37.746;2022-11-27T21:16:22;101224.41;;;-0.15;0.00
23318;BME280;11831;55.918;37.746;2022-11-27T21:18:53;101229.34;;;-0.45;0.00
23318;BME280;11831;55.918;37.746;2022-11-27T21:21:19;101227.94;;;-0.62;0.00
23318;BME280;11831;55.918;37.746;2022-11-27T21:23:46;101223.13;;;-0.44;0.00
23318;BME280;11831;55.918;37.746;2022-11-27T21:26:12;101224.75;;;-0.30;0.00
23318;BME280;11831;55.918;37.746;2022-11-27T21:28:41;101220.47;;;-0.20;0.00
23318;BME280;11831;55.918;37.746;2022-11-27T21:31:13;101223.44;;;-0.60;0.00
23318;BME280;11831;55.918;37.746;2022-11-27T21:33:47;101221.41;;;-0.56;0.00
23318;BME280;11831;55.918;37.746;2022-11-27T21:36:15;101218.69;;;-0.20;0.00
23318;BME280;11831;55.918;37.746;2022-11-27T21:38:42;101229.31;;;-0.10;0.00
23318;BME280;11831;55.918;37.746;2022-11-27T21:41:09;101220.13;;;-0.51;0.00
23318;BME280;11831;55.918;37.746;2022-11-27T21:43:39;101222.50;;;-0.59;0.00
23318;BME280;11831;55.918;37.746;2022-11-27T21:46:11;101228.69;;;-0.60;0.00
23318;BME280;11831;55.918;37.746;2022-11-27T21:48:39;101225.28;;;-0.38;0.00
23318;BME280;11831;55.918;37.746;2022-11-27T21:51:07;101225.97;;;-0.23;0.00
23318;BME280;11831;55.918;37.746;2022-11-27T21:53:38;101232.16;;;-0.24;0.00
23318;BME280;11831;55.918;37.746;2022-11-27T21:56:10;101228.47;;;-0.57;0.00
23318;BME280;11831;55.918;37.746;2022-11-27T21:58:37;101226.34;;;-0.76;0.00
23318;BME280;11831;55.918;37.746;2022-11-27T22:01:06;101228.50;;;-0.94;0.00
23318;BME280;11831;55.918;37.746;2022-11-27T22:03:34;101233.16;;;-0.49;0.00
23318;BME280;11831;55.918;37.746;2022-11-27T22:06:06;101230.03;;;-0.54;0.00
23318;BME280;11831;55.918;37.746;2022-11-27T22:08:34;101235.41;;;-0.93;0.00
23318;BME280;11831;55.918;37.746;2022-11-27T22:11:07;101226.09;;;-0.73;0.00
23318;BME280;11831;55.918;37.746;2022-11-27T22:13:34;101226.59;;;-0.68;0.00
23318;BME280;11831;55.918;37.746;2022-11-27T22:16:07;101226.34;;;-0.52;0.00
23318;BME280;11831;55.918;37.746;2022-11-27T22:18:34;101221.66;;;-0.59;0.00
23318;BME280;11831;55.918;37.746;2022-11-27T22:21:05;101233.25;;;-0.75;0.00
23318;BME280;11831;55.918;37.746;2022-11-27T22:23:32;101224.88;;;-0.56;0.00
23318;BME280;11831;55.918;37.746;2022-11-27T22:26:02;101233.94;;;-0.60;0.00
23318;BME280;11831;55.918;37.746;2022-11-27T22:28:29;101230.63;;;-0.75;0.00
23318;BME280;11831;55.918;37.746;2022-11-27T22:30:56;101232.94;;;-0.70;0.00
23318;BME280;11831;55.918;37.746;2022-11-27T22:33:23;101235.75;;;-0.60;0.00
23318;BME280;11831;55.918;37.746;2022-11-27T22:35:49;101236.50;;;-0.47;0.00
23318;BME280;11831;55.918;37.746;2022-11-27T22:38:16;101247.81;;;-0.82;0.00
23318;BME280;11831;55.918;37.746;2022-11-27T22:40:42;101240.91;;;-0.72;0.00
23318;BME280;11831;55.918;37.746;2022-11-27T22:43:08;101249.44;;;-0.33;0.00
23318;BME280;11831;55.918;37.746;2022-11-27T22:45:38;101250.37;;;-0.45;0.00
23318;BME280;11831;55.918;37.746;2022-11-27T22:48:05;101239.03;;;-0.35;0.00
23318;BME280;11831;55.918;37.746;2022-11-27T22:50:31;101252.84;;;-0.55;0.00
23318;BME280;11831;55.918;37.746;2022-11-27T22:52:57;101246.50;;;-0.76;0.00
23318;BME280;11831;55.918;37.746;2022-11-27T22:55:23;101249.63;;;-0.23;0.00
23318;BME280;11831;55.918;37.746;2022-11-27T22:57:50;101244.75;;;-0.41;0.00
23318;BME280;11831;55.918;37.746;2022-11-27T23:00:16;101245.34;;;-0.48;0.00
23318;BME280;11831;55.918;37.746;2022-11-27T23:02:43;101248.03;;;-0.98;0.00
23318;BME280;11831;55.918;37.746;2022-11-27T23:05:09;101248.34;;;-0.42;0.00
23318;BME280;11831;55.918;37.746;2022-11-27T23:07:35;101252.12;;;-0.22;0.00
23318;BME280;11831;55.918;37.746;2022-11-27T23:10:02;101256.84;;;-0.03;0.00
23318;BME280;11831;55.918;37.746;2022-11-27T23:12:28;101252.41;;;-0.38;0.00
23318;BME280;11831;55.918;37.746;2022-11-27T23:14:55;101261.38;;;-0.40;0.00
23318;BME280;11831;55.918;37.746;2022-11-27T23:17:21;101260.03;;;-0.70;0.00
23318;BME280;11831;55.918;37.746;2022-11-27T23:19:47;101257.84;;;-0.76;0.00
23318;BME280;11831;55.918;37.746;2022-11-27T23:22:14;101264.91;;;-0.52;0.00
23318;BME280;11831;55.918;37.746;2022-11-27T23:24:40;101256.56;;;-0.70;0.00
23318;BME280;11831;55.918;37.746;2022-11-27T23:27:06;101263.87;;;-0.63;0.00
23318;BME280;11831;55.918;37.746;2022-11-27T23:29:32;101261.19;;;-0.61;0.00
23318;BME280;11831;55.918;37.746;2022-11-27T23:31:59;101253.31;;;-0.26;0.00
23318;BME280;11831;55.918;37.746;2022-11-27T23:34:25;101262.03;;;-0.25;0.00
23318;BME280;11831;55.918;37.746;2022-11-27T23:36:51;101250.94;;;-0.53;0.00
23318;BME280;11831;55.918;37.746;2022-11-27T23:39:17;101257.37;;;-0.22;0.00
23318;BME280;11831;55.918;37.746;2022-11-27T23:41:44;101261.78;;;-0.81;0.00
23318;BME280;11831;55.918;37.746;2022-11-27T23:44:11;101268.38;;;-0.52;0.00
23318;BME280;11831;55.918;37.746;2022-11-27T23:46:37;101269.09;;;-0.26;0.00
23318;BME280;11831;55.918;37.746;2022-11-27T23:49:04;101273.97;;;-0.93;0.00
23318;BME280;11831;55.918;37.746;2022-11-27T23:51:31;101271.69;;;-0.61;0.00
23318;BME280;11831;55.918;37.746;2022-11-27T23:53:58;101277.03;;;-0.39;0.00
23318;BME280;11831;55.918;37.746;2022-11-27T23:56:27;101268.53;;;-0.42;0.00
23318;BME280;11831;55.918;37.746;2022-11-27T23:58:54;101277.34;;;-0.19;0.00
